Terminal Aerodrome Forecast
Issued by NWS Sterling, VA

Current Version | Previous Version | Graphics & Text | Print | Product List | Glossary On
Versions: 1 2 3 4 5 6 7 8 9 10 11 12 13 14 15 16 17 18 19 20 21 22 23 24 25 26 27 28 29 30 31 32 33
000
FTUS41 KLWX 040901 AAA
TAFDCA
TAF AMD
KDCA 040901Z 0409/0506 20005KT P6SM -SHRA OVC060
      TEMPO 0409/0411 OVC015
     FM041600 VRB03KT 3SM -RA BR OVC025
     FM050000 02008KT 2SM -RA BR OVC008=

USA.gov is the U.S. government's official web portal to all federal, state and local government web resources and services.